Cardara, Kazakhstan
Current Conditions -  °F | °C
As of 9:30 AM on Saturday 25 Oct 2014 (Local Time) from UTTT Reporting Station
Clear Clear  
Wind Chill: 59°   Ceiling: Unl
Heat Index: 59°   Visibility: 4mi
Dew Point: 50°   Wind: 2mph
Humidity: 72%   Direction: NA
Pressure: 30"   Gusts: NA
Location:  41.37°N, 68°E
Report Text: UTTT 250330Z VRB01MPS 7000 NSC 15/10 Q1016 R08R/CLRD70 NOSIG
Loading
Personal Weather Stations






























Interactive Weather Map
Tropical Storm Tracking
New forecast layout! Learn more

10-Day Weather Forecast

Advertisements
Track Severe Weather on mobile